sensor_id;sensor_type;location;lat;lon;timestamp;pressure;altitude;pressure_sealevel;temperature
11926;BMP180;6022;48.768;18.608;2022-12-20T00:01:34;99979.56;;;-0.21
11926;BMP180;6022;48.768;18.608;2022-12-20T00:04:04;99972.94;;;-0.19
11926;BMP180;6022;48.768;18.608;2022-12-20T00:06:34;99974.59;;;-0.18
11926;BMP180;6022;48.768;18.608;2022-12-20T00:09:05;99966.28;;;-0.17
11926;BMP180;6022;48.768;18.608;2022-12-20T00:11:34;99966.28;;;-0.17
11926;BMP180;6022;48.768;18.608;2022-12-20T00:14:02;99948.00;;;-0.16
11926;BMP180;6022;48.768;18.608;2022-12-20T00:16:29;99943.84;;;-0.17
11926;BMP180;6022;48.768;18.608;2022-12-20T00:18:59;99939.69;;;-0.15
11926;BMP180;6022;48.768;18.608;2022-12-20T00:21:29;99935.56;;;-0.15
11926;BMP180;6022;48.768;18.608;2022-12-20T00:23:57;99940.53;;;-0.10
11926;BMP180;6022;48.768;18.608;2022-12-20T00:26:28;99945.53;;;-0.16
11926;BMP180;6022;48.768;18.608;2022-12-20T00:28:57;99950.53;;;-0.15
11926;BMP180;6022;48.768;18.608;2022-12-20T00:31:27;99947.19;;;-0.14
11926;BMP180;6022;48.768;18.608;2022-12-20T00:33:56;99955.50;;;-0.10
11926;BMP180;6022;48.768;18.608;2022-12-20T00:36:26;99948.03;;;-0.10
11926;BMP180;6022;48.768;18.608;2022-12-20T00:38:56;99953.00;;;-0.10
11926;BMP180;6022;48.768;18.608;2022-12-20T00:41:27;99959.66;;;-0.09
11926;BMP180;6022;48.768;18.608;2022-12-20T00:43:55;99958.00;;;-0.06
11926;BMP180;6022;48.768;18.608;2022-12-20T00:46:24;99954.69;;;-0.06
11926;BMP180;6022;48.768;18.608;2022-12-20T00:48:53;99948.03;;;-0.04
11926;BMP180;6022;48.768;18.608;2022-12-20T00:51:26;99940.56;;;-0.09
11926;BMP180;6022;48.768;18.608;2022-12-20T00:53:53;99941.38;;;-0.08
11926;BMP180;6022;48.768;18.608;2022-12-20T00:56:21;99948.03;;;-0.04
11926;BMP180;6022;48.768;18.608;2022-12-20T00:58:48;99953.03;;;-0.03
11926;BMP180;6022;48.768;18.608;2022-12-20T01:01:20;99954.69;;;-0.03
11926;BMP180;6022;48.768;18.608;2022-12-20T01:03:49;99963.00;;;-0.07
11926;BMP180;6022;48.768;18.608;2022-12-20T01:06:19;99976.28;;;-0.08
11926;BMP180;6022;48.768;18.608;2022-12-20T01:08:47;99958.00;;;-0.09
11926;BMP180;6022;48.768;18.608;2022-12-20T01:11:27;99952.19;;;-0.06
11926;BMP180;6022;48.768;18.608;2022-12-20T01:13:59;99949.69;;;-0.06
11926;BMP180;6022;48.768;18.608;2022-12-20T01:16:34;99941.38;;;-0.08
11926;BMP180;6022;48.768;18.608;2022-12-20T01:19:03;99948.88;;;0.00
11926;BMP180;6022;48.768;18.608;2022-12-20T01:21:30;99958.88;;;0.02
11926;BMP180;6022;48.768;18.608;2022-12-20T01:23:58;99948.91;;;0.08
11926;BMP180;6022;48.768;18.608;2022-12-20T01:26:27;99931.44;;;0.26
11926;BMP180;6022;48.768;18.608;2022-12-20T01:28:59;99925.63;;;0.31
11926;BMP180;6022;48.768;18.608;2022-12-20T01:31:28;99918.16;;;0.31
11926;BMP180;6022;48.768;18.608;2022-12-20T01:33:56;99914.81;;;0.35
11926;BMP180;6022;48.768;18.608;2022-12-20T01:36:27;99908.19;;;0.40
11926;BMP180;6022;48.768;18.608;2022-12-20T01:38:57;99911.50;;;0.42
11926;BMP180;6022;48.768;18.608;2022-12-20T01:41:27;99904.81;;;0.56
11926;BMP180;6022;48.768;18.608;2022-12-20T01:44:00;99902.34;;;0.54
11926;BMP180;6022;48.768;18.608;2022-12-20T01:46:31;99894.00;;;0.61
11926;BMP180;6022;48.768;18.608;2022-12-20T01:49:11;99899.00;;;0.60
11926;BMP180;6022;48.768;18.608;2022-12-20T01:51:44;99894.84;;;0.56
11926;BMP180;6022;48.768;18.608;2022-12-20T01:54:26;99889.88;;;0.53
11926;BMP180;6022;48.768;18.608;2022-12-20T01:57:03;99877.38;;;0.48
11926;BMP180;6022;48.768;18.608;2022-12-20T01:59:34;99874.88;;;0.50
11926;BMP180;6022;48.768;18.608;2022-12-20T02:02:08;99875.72;;;0.56
11926;BMP180;6022;48.768;18.608;2022-12-20T02:04:37;99863.22;;;0.59
11926;BMP180;6022;48.768;18.608;2022-12-20T02:07:07;99866.56;;;0.63
11926;BMP180;6022;48.768;18.608;2022-12-20T02:09:39;99855.72;;;0.65
11926;BMP180;6022;48.768;18.608;2022-12-20T02:12:11;99841.59;;;0.66
11926;BMP180;6022;48.768;18.608;2022-12-20T02:27:04;99850.69;;;0.84
11926;BMP180;6022;48.768;18.608;2022-12-20T02:30:10;99842.38;;;0.71
11926;BMP180;6022;48.768;18.608;2022-12-20T02:32:59;99828.22;;;0.74
11926;BMP180;6022;48.768;18.608;2022-12-20T02:35:32;99824.06;;;0.79
11926;BMP180;6022;48.768;18.608;2022-12-20T02:38:03;99821.53;;;0.80
11926;BMP180;6022;48.768;18.608;2022-12-20T02:40:40;99826.53;;;0.80
11926;BMP180;6022;48.768;18.608;2022-12-20T02:43:10;99827.38;;;0.87
11926;BMP180;6022;48.768;18.608;2022-12-20T02:46:00;99816.56;;;0.86
11926;BMP180;6022;48.768;18.608;2022-12-20T02:48:31;99822.38;;;0.84
11926;BMP180;6022;48.768;18.608;2022-12-20T02:51:00;99812.41;;;0.78
11926;BMP180;6022;48.768;18.608;2022-12-20T02:53:28;99803.25;;;0.75
11926;BMP180;6022;48.768;18.608;2022-12-20T02:56:27;99797.38;;;0.85
11926;BMP180;6022;48.768;18.608;2022-12-20T02:59:25;99800.63;;;1.11
11926;BMP180;6022;48.768;18.608;2022-12-20T03:01:56;99810.69;;;0.93
11926;BMP180;6022;48.768;18.608;2022-12-20T03:04:28;99796.50;;;0.95
11926;BMP180;6022;48.768;18.608;2022-12-20T03:07:01;99799.06;;;0.85
11926;BMP180;6022;48.768;18.608;2022-12-20T03:09:36;99794.91;;;0.88
11926;BMP180;6022;48.768;18.608;2022-12-20T03:12:05;99808.22;;;0.81
11926;BMP180;6022;48.768;18.608;2022-12-20T03:14:32;99799.88;;;0.90
11926;BMP180;6022;48.768;18.608;2022-12-20T03:17:00;99807.41;;;0.79
11926;BMP180;6022;48.768;18.608;2022-12-20T03:19:28;99808.25;;;0.75
11926;BMP180;6022;48.768;18.608;2022-12-20T03:21:56;99814.91;;;0.76
11926;BMP180;6022;48.768;18.608;2022-12-20T03:24:24;99806.56;;;0.83
11926;BMP180;6022;48.768;18.608;2022-12-20T03:26:51;99804.94;;;0.74
11926;BMP180;6022;48.768;18.608;2022-12-20T03:29:18;99804.13;;;0.73
11926;BMP180;6022;48.768;18.608;2022-12-20T03:31:45;99809.06;;;0.82
11926;BMP180;6022;48.768;18.608;2022-12-20T03:34:12;99801.56;;;0.85
11926;BMP180;6022;48.768;18.608;2022-12-20T03:36:39;99817.41;;;0.81
11926;BMP180;6022;48.768;18.608;2022-12-20T03:39:06;99813.25;;;0.75
11926;BMP180;6022;48.768;18.608;2022-12-20T03:41:33;99816.59;;;0.72
11926;BMP180;6022;48.768;18.608;2022-12-20T03:44:00;99808.22;;;0.92
11926;BMP180;6022;48.768;18.608;2022-12-20T03:46:27;99808.16;;;0.99
11926;BMP180;6022;48.768;18.608;2022-12-20T03:48:55;99799.00;;;1.00
11926;BMP180;6022;48.768;18.608;2022-12-20T03:51:22;99794.84;;;0.97
11926;BMP180;6022;48.768;18.608;2022-12-20T03:53:49;99795.69;;;0.95
11926;BMP180;6022;48.768;18.608;2022-12-20T03:56:16;99802.34;;;1.00
11926;BMP180;6022;48.768;18.608;2022-12-20T03:58:43;99785.72;;;0.89
11926;BMP180;6022;48.768;18.608;2022-12-20T04:01:23;99784.06;;;0.89
11926;BMP180;6022;48.768;18.608;2022-12-20T04:03:51;99790.72;;;0.90
11926;BMP180;6022;48.768;18.608;2022-12-20T04:06:19;99784.03;;;0.97
11926;BMP180;6022;48.768;18.608;2022-12-20T04:08:47;99783.25;;;0.83
11926;BMP180;6022;48.768;18.608;2022-12-20T04:11:14;99795.78;;;0.75
11926;BMP180;6022;48.768;18.608;2022-12-20T04:13:47;99781.63;;;0.77
11926;BMP180;6022;48.768;18.608;2022-12-20T04:16:23;99782.44;;;0.78
11926;BMP180;6022;48.768;18.608;2022-12-20T04:18:51;99771.56;;;0.92
11926;BMP180;6022;48.768;18.608;2022-12-20T04:21:31;99764.91;;;0.96
11926;BMP180;6022;48.768;18.608;2022-12-20T04:24:01;99779.84;;;1.03
11926;BMP180;6022;48.768;18.608;2022-12-20T04:26:29;99773.19;;;1.01
11926;BMP180;6022;48.768;18.608;2022-12-20T04:28:56;99769.88;;;0.94
11926;BMP180;6022;48.768;18.608;2022-12-20T04:31:23;99755.78;;;0.81
11926;BMP180;6022;48.768;18.608;2022-12-20T04:33:51;99756.53;;;1.00
11926;BMP180;6022;48.768;18.608;2022-12-20T04:36:18;99757.38;;;1.00
11926;BMP180;6022;48.768;18.608;2022-12-20T04:38:45;99758.22;;;0.93
11926;BMP180;6022;48.768;18.608;2022-12-20T04:41:12;99759.91;;;0.93
11926;BMP180;6022;48.768;18.608;2022-12-20T04:43:55;99746.63;;;0.83
11926;BMP180;6022;48.768;18.608;2022-12-20T04:46:24;99754.97;;;0.82
11926;BMP180;6022;48.768;18.608;2022-12-20T04:48:52;99758.31;;;0.73
11926;BMP180;6022;48.768;18.608;2022-12-20T04:51:26;99761.69;;;0.66
11926;BMP180;6022;48.768;18.608;2022-12-20T04:53:54;99769.16;;;0.61
11926;BMP180;6022;48.768;18.608;2022-12-20T04:56:28;99757.50;;;0.66
11926;BMP180;6022;48.768;18.608;2022-12-20T04:58:57;99762.47;;;0.75
11926;BMP180;6022;48.768;18.608;2022-12-20T05:01:25;99765.00;;;0.68
11926;BMP180;6022;48.768;18.608;2022-12-20T05:03:53;99750.81;;;0.71
11926;BMP180;6022;48.768;18.608;2022-12-20T05:06:21;99751.66;;;0.77
11926;BMP180;6022;48.768;18.608;2022-12-20T05:08:48;99751.66;;;0.67
11926;BMP180;6022;48.768;18.608;2022-12-20T05:11:15;99741.72;;;0.63
11926;BMP180;6022;48.768;18.608;2022-12-20T05:13:42;99741.72;;;0.60
11926;BMP180;6022;48.768;18.608;2022-12-20T05:16:10;99739.22;;;0.54
11926;BMP180;6022;48.768;18.608;2022-12-20T05:18:37;99736.75;;;0.49
11926;BMP180;6022;48.768;18.608;2022-12-20T05:21:14;99746.75;;;0.48
11926;BMP180;6022;48.768;18.608;2022-12-20T05:23:59;99741.75;;;0.51
11926;BMP180;6022;48.768;18.608;2022-12-20T05:26:45;99730.09;;;0.48
11926;BMP180;6022;48.768;18.608;2022-12-20T05:29:12;99725.13;;;0.44
11926;BMP180;6022;48.768;18.608;2022-12-20T05:31:40;99730.16;;;0.38
11926;BMP180;6022;48.768;18.608;2022-12-20T05:34:07;99730.16;;;0.38
11926;BMP180;6022;48.768;18.608;2022-12-20T05:36:34;99717.66;;;0.37
11926;BMP180;6022;48.768;18.608;2022-12-20T05:39:01;99720.16;;;0.35
11926;BMP180;6022;48.768;18.608;2022-12-20T05:41:30;99720.19;;;0.32
11926;BMP180;6022;48.768;18.608;2022-12-20T05:43:58;99708.50;;;0.37
11926;BMP180;6022;48.768;18.608;2022-12-20T05:46:25;99710.19;;;0.38
11926;BMP180;6022;48.768;18.608;2022-12-20T05:48:52;99710.16;;;0.35
11926;BMP180;6022;48.768;18.608;2022-12-20T05:51:20;99705.97;;;0.46
11926;BMP180;6022;48.768;18.608;2022-12-20T05:53:47;99691.00;;;0.44
11926;BMP180;6022;48.768;18.608;2022-12-20T05:56:14;99691.84;;;0.42
11926;BMP180;6022;48.768;18.608;2022-12-20T05:58:41;99688.53;;;0.40
11926;BMP180;6022;48.768;18.608;2022-12-20T06:01:09;99687.72;;;0.37
11926;BMP180;6022;48.768;18.608;2022-12-20T06:03:39;99694.38;;;0.38
11926;BMP180;6022;48.768;18.608;2022-12-20T06:06:07;99699.38;;;0.36
11926;BMP180;6022;48.768;18.608;2022-12-20T06:08:41;99701.88;;;0.36
11926;BMP180;6022;48.768;18.608;2022-12-20T06:11:08;99706.84;;;0.39
11926;BMP180;6022;48.768;18.608;2022-12-20T06:13:35;99715.16;;;0.45
11926;BMP180;6022;48.768;18.608;2022-12-20T06:16:03;99704.31;;;0.49
11926;BMP180;6022;48.768;18.608;2022-12-20T06:18:30;99709.28;;;0.52
11926;BMP180;6022;48.768;18.608;2022-12-20T06:20:57;99706.81;;;0.48
11926;BMP180;6022;48.768;18.608;2022-12-20T06:23:27;99705.94;;;0.59
11926;BMP180;6022;48.768;18.608;2022-12-20T06:25:54;99710.94;;;0.62
11926;BMP180;6022;48.768;18.608;2022-12-20T06:28:21;99709.28;;;0.58
11926;BMP180;6022;48.768;18.608;2022-12-20T06:30:56;99711.78;;;0.52
11926;BMP180;6022;48.768;18.608;2022-12-20T06:33:24;99708.47;;;0.49
11926;BMP180;6022;48.768;18.608;2022-12-20T06:35:52;99708.47;;;0.46
11926;BMP180;6022;48.768;18.608;2022-12-20T06:38:19;99705.97;;;0.46
11926;BMP180;6022;48.768;18.608;2022-12-20T06:40:46;99707.66;;;0.42
11926;BMP180;6022;48.768;18.608;2022-12-20T06:43:13;99714.28;;;0.48
11926;BMP180;6022;48.768;18.608;2022-12-20T06:45:41;99711.81;;;0.49
11926;BMP180;6022;48.768;18.608;2022-12-20T06:48:10;99711.78;;;0.58
11926;BMP180;6022;48.768;18.608;2022-12-20T06:50:38;99706.75;;;0.63
11926;BMP180;6022;48.768;18.608;2022-12-20T06:53:05;99700.94;;;0.62
11926;BMP180;6022;48.768;18.608;2022-12-20T06:55:32;99700.09;;;0.65
11926;BMP180;6022;48.768;18.608;2022-12-20T06:58:00;99698.44;;;0.61
11926;BMP180;6022;48.768;18.608;2022-12-20T07:00:27;99699.25;;;0.61
11926;BMP180;6022;48.768;18.608;2022-12-20T07:02:54;99701.75;;;0.66
11926;BMP180;6022;48.768;18.608;2022-12-20T07:05:21;99702.59;;;0.68
11926;BMP180;6022;48.768;18.608;2022-12-20T07:07:49;99707.53;;;0.69
11926;BMP180;6022;48.768;18.608;2022-12-20T07:10:16;99698.41;;;0.70
11926;BMP180;6022;48.768;18.608;2022-12-20T07:12:43;99700.06;;;0.71
11926;BMP180;6022;48.768;18.608;2022-12-20T07:15:15;99702.56;;;0.74
11926;BMP180;6022;48.768;18.608;2022-12-20T07:17:43;99700.06;;;0.71
11926;BMP180;6022;48.768;18.608;2022-12-20T07:20:14;99699.22;;;0.69
11926;BMP180;6022;48.768;18.608;2022-12-20T07:22:48;99701.75;;;0.66
11926;BMP180;6022;48.768;18.608;2022-12-20T07:25:15;99687.56;;;0.69
11926;BMP180;6022;48.768;18.608;2022-12-20T07:27:46;99700.06;;;0.71
11926;BMP180;6022;48.768;18.608;2022-12-20T07:30:14;99707.53;;;0.72
11926;BMP180;6022;48.768;18.608;2022-12-20T07:32:42;99701.69;;;0.74
11926;BMP180;6022;48.768;18.608;2022-12-20T07:35:13;99694.19;;;0.79
11926;BMP180;6022;48.768;18.608;2022-12-20T07:37:41;99689.16;;;0.82
11926;BMP180;6022;48.768;18.608;2022-12-20T07:40:10;99689.16;;;0.83
11926;BMP180;6022;48.768;18.608;2022-12-20T07:42:37;99689.16;;;0.86
11926;BMP180;6022;48.768;18.608;2022-12-20T07:45:14;99696.63;;;0.89
11926;BMP180;6022;48.768;18.608;2022-12-20T07:47:41;99690.81;;;0.90
11926;BMP180;6022;48.768;18.608;2022-12-20T07:50:10;99694.13;;;0.94
11926;BMP180;6022;48.768;18.608;2022-12-20T07:52:40;99694.13;;;0.94
11926;BMP180;6022;48.768;18.608;2022-12-20T07:55:10;99686.63;;;0.92
11926;BMP180;6022;48.768;18.608;2022-12-20T07:57:50;99682.41;;;1.02
11926;BMP180;6022;48.768;18.608;2022-12-20T08:00:18;99675.69;;;1.13
11926;BMP180;6022;48.768;18.608;2022-12-20T08:05:21;99663.94;;;1.23
11926;BMP180;6022;48.768;18.608;2022-12-20T08:07:51;99664.69;;;1.33
11926;BMP180;6022;48.768;18.608;2022-12-20T08:10:26;99672.13;;;1.42
11926;BMP180;6022;48.768;18.608;2022-12-20T08:12:54;99684.56;;;1.48
11926;BMP180;6022;48.768;18.608;2022-12-20T08:15:23;99663.69;;;1.57
11926;BMP180;6022;48.768;18.608;2022-12-20T08:17:51;99652.69;;;1.73
11926;BMP180;6022;48.768;18.608;2022-12-20T08:20:18;99649.97;;;1.95
11926;BMP180;6022;48.768;18.608;2022-12-20T08:22:45;99652.41;;;2.01
11926;BMP180;6022;48.768;18.608;2022-12-20T08:25:12;99655.72;;;2.05
11926;BMP180;6022;48.768;18.608;2022-12-20T08:27:40;99650.72;;;2.02
11926;BMP180;6022;48.768;18.608;2022-12-20T08:30:08;99639.88;;;2.01
11926;BMP180;6022;48.768;18.608;2022-12-20T08:32:37;99640.75;;;2.00
11926;BMP180;6022;48.768;18.608;2022-12-20T08:35:05;99644.00;;;2.07
11926;BMP180;6022;48.768;18.608;2022-12-20T08:37:32;99642.28;;;2.12
11926;BMP180;6022;48.768;18.608;2022-12-20T08:40:00;99633.84;;;2.19
11926;BMP180;6022;48.768;18.608;2022-12-20T08:42:28;99639.66;;;2.24
11926;BMP180;6022;48.768;18.608;2022-12-20T08:44:55;99638.75;;;2.29
11926;BMP180;6022;48.768;18.608;2022-12-20T08:47:22;99630.44;;;2.25
11926;BMP180;6022;48.768;18.608;2022-12-20T08:49:49;99629.44;;;2.40
11926;BMP180;6022;48.768;18.608;2022-12-20T08:52:16;99636.88;;;2.44
11926;BMP180;6022;48.768;18.608;2022-12-20T08:54:43;99632.75;;;2.40
11926;BMP180;6022;48.768;18.608;2022-12-20T08:57:10;99638.56;;;2.45
11926;BMP180;6022;48.768;18.608;2022-12-20T08:59:37;99642.69;;;2.48
11926;BMP180;6022;48.768;18.608;2022-12-20T09:02:05;99642.72;;;2.45
11926;BMP180;6022;48.768;18.608;2022-12-20T09:04:32;99636.97;;;2.38
11926;BMP180;6022;48.768;18.608;2022-12-20T09:06:59;99651.16;;;2.38
11926;BMP180;6022;48.768;18.608;2022-12-20T09:09:27;99657.81;;;2.40
11926;BMP180;6022;48.768;18.608;2022-12-20T09:11:54;99665.25;;;2.45
11926;BMP180;6022;48.768;18.608;2022-12-20T09:14:22;99668.53;;;2.51
11926;BMP180;6022;48.768;18.608;2022-12-20T09:16:49;99678.50;;;2.54
11926;BMP180;6022;48.768;18.608;2022-12-20T09:19:16;99671.78;;;2.56
11926;BMP180;6022;48.768;18.608;2022-12-20T09:21:43;99675.09;;;2.58
11926;BMP180;6022;48.768;18.608;2022-12-20T09:24:12;99683.41;;;2.60
11926;BMP180;6022;48.768;18.608;2022-12-20T09:26:39;99670.16;;;2.55
11926;BMP180;6022;48.768;18.608;2022-12-20T09:29:06;99680.09;;;2.61
11926;BMP180;6022;48.768;18.608;2022-12-20T09:31:34;99675.19;;;2.52
11926;BMP180;6022;48.768;18.608;2022-12-20T09:34:01;99670.97;;;2.56
11926;BMP180;6022;48.768;18.608;2022-12-20T09:36:29;99671.03;;;2.51
11926;BMP180;6022;48.768;18.608;2022-12-20T09:38:57;99652.72;;;2.48
11926;BMP180;6022;48.768;18.608;2022-12-20T09:41:36;99644.41;;;2.44
11926;BMP180;6022;48.768;18.608;2022-12-20T09:44:42;99631.00;;;2.48
11926;BMP180;6022;48.768;18.608;2022-12-20T09:47:22;99625.81;;;2.62
11926;BMP180;6022;48.768;18.608;2022-12-20T09:49:55;99620.72;;;2.67
11926;BMP180;6022;48.768;18.608;2022-12-20T10:01:26;99615.25;;;3.51
11926;BMP180;6022;48.768;18.608;2022-12-20T10:04:19;99615.34;;;3.45
11926;BMP180;6022;48.768;18.608;2022-12-20T10:15:24;99574.47;;;3.38
11926;BMP180;6022;48.768;18.608;2022-12-20T10:23:42;99573.50;;;3.47
11926;BMP180;6022;48.768;18.608;2022-12-20T10:26:12;99573.50;;;3.47
11926;BMP180;6022;48.768;18.608;2022-12-20T10:28:40;99556.78;;;3.46
11926;BMP180;6022;48.768;18.608;2022-12-20T10:31:14;99561.00;;;3.44
11926;BMP180;6022;48.768;18.608;2022-12-20T10:33:43;99550.13;;;3.45
11926;BMP180;6022;48.768;18.608;2022-12-20T10:36:34;99548.28;;;3.56
11926;BMP180;6022;48.768;18.608;2022-12-20T10:39:08;99544.91;;;3.55
11926;BMP180;6022;48.768;18.608;2022-12-20T10:44:25;99528.59;;;3.78
11926;BMP180;6022;48.768;18.608;2022-12-20T10:46:58;99518.44;;;3.84
11926;BMP180;6022;48.768;18.608;2022-12-20T10:49:37;99508.38;;;3.86
11926;BMP180;6022;48.768;18.608;2022-12-20T10:54:38;99508.28;;;3.90
11926;BMP180;6022;48.768;18.608;2022-12-20T10:57:19;99505.81;;;3.87
11926;BMP180;6022;48.768;18.608;2022-12-20T10:59:57;99501.53;;;3.92
11926;BMP180;6022;48.768;18.608;2022-12-20T11:08:05;99500.56;;;3.99
11926;BMP180;6022;48.768;18.608;2022-12-20T11:11:19;99497.13;;;4.03
11926;BMP180;6022;48.768;18.608;2022-12-20T11:13:49;99477.56;;;4.17
11926;BMP180;6022;48.768;18.608;2022-12-20T11:16:35;99471.63;;;4.21
11926;BMP180;6022;48.768;18.608;2022-12-20T11:25:32;99462.63;;;4.11
11926;BMP180;6022;48.768;18.608;2022-12-20T11:34:01;99441.84;;;4.06
11926;BMP180;6022;48.768;18.608;2022-12-20T11:46:18;99430.13;;;4.05
11926;BMP180;6022;48.768;18.608;2022-12-20T11:55:18;99406.13;;;4.30
11926;BMP180;6022;48.768;18.608;2022-12-20T11:58:29;99405.19;;;4.34
11926;BMP180;6022;48.768;18.608;2022-12-20T12:01:23;99400.34;;;4.26
11926;BMP180;6022;48.768;18.608;2022-12-20T12:04:15;99391.19;;;4.25
11926;BMP180;6022;48.768;18.608;2022-12-20T12:06:54;99388.09;;;4.13
11926;BMP180;6022;48.768;18.608;2022-12-20T12:09:44;99386.41;;;4.13
11926;BMP180;6022;48.768;18.608;2022-12-20T12:12:27;99396.75;;;4.00
11926;BMP180;6022;48.768;18.608;2022-12-20T12:18:26;99389.22;;;4.02
11926;BMP180;6022;48.768;18.608;2022-12-20T12:21:12;99387.56;;;4.01
11926;BMP180;6022;48.768;18.608;2022-12-20T12:26:34;99372.50;;;4.01
11926;BMP180;6022;48.768;18.608;2022-12-20T12:32:18;99384.00;;;4.11
11926;BMP180;6022;48.768;18.608;2022-12-20T12:42:12;99372.28;;;4.10
11926;BMP180;6022;48.768;18.608;2022-12-20T12:45:02;99371.56;;;4.06
11926;BMP180;6022;48.768;18.608;2022-12-20T12:48:04;99369.84;;;4.08
11926;BMP180;6022;48.768;18.608;2022-12-20T12:50:39;99365.53;;;4.12
11926;BMP180;6022;48.768;18.608;2022-12-20T12:53:15;99358.19;;;4.04
11926;BMP180;6022;48.768;18.608;2022-12-20T12:55:52;99360.03;;;3.96
11926;BMP180;6022;48.768;18.608;2022-12-20T12:58:38;99370.09;;;3.96
11926;BMP180;6022;48.768;18.608;2022-12-20T13:04:53;99338.72;;;3.77
11926;BMP180;6022;48.768;18.608;2022-12-20T13:17:57;99351.88;;;3.51
11926;BMP180;6022;48.768;18.608;2022-12-20T13:20:32;99352.72;;;3.50
11926;BMP180;6022;48.768;18.608;2022-12-20T13:25:47;99342.63;;;3.53
11926;BMP180;6022;48.768;18.608;2022-12-20T13:30:46;99333.53;;;3.47
11926;BMP180;6022;48.768;18.608;2022-12-20T13:33:47;99331.50;;;3.25
11926;BMP180;6022;48.768;18.608;2022-12-20T13:41:34;99318.44;;;3.11
11926;BMP180;6022;48.768;18.608;2022-12-20T13:46:49;99336.22;;;3.00
11926;BMP180;6022;48.768;18.608;2022-12-20T13:49:40;99320.56;;;2.89
11926;BMP180;6022;48.768;18.608;2022-12-20T13:54:47;99333.13;;;2.86
11926;BMP180;6022;48.768;18.608;2022-12-20T13:57:23;99331.53;;;2.83
11926;BMP180;6022;48.768;18.608;2022-12-20T13:59:56;99331.41;;;2.89
11926;BMP180;6022;48.768;18.608;2022-12-20T14:02:39;99332.31;;;2.87
11926;BMP180;6022;48.768;18.608;2022-12-20T14:05:21;99325.75;;;2.80
11926;BMP180;6022;48.768;18.608;2022-12-20T14:08:00;99326.59;;;2.79
11926;BMP180;6022;48.768;18.608;2022-12-20T14:10:33;99332.47;;;2.78
11926;BMP180;6022;48.768;18.608;2022-12-20T14:13:02;99325.78;;;2.77
11926;BMP180;6022;48.768;18.608;2022-12-20T14:15:34;99310.81;;;2.75
11926;BMP180;6022;48.768;18.608;2022-12-20T14:18:18;99310.72;;;2.80
11926;BMP180;6022;48.768;18.608;2022-12-20T14:20:57;99315.69;;;2.81
11926;BMP180;6022;48.768;18.608;2022-12-20T14:23:37;99315.03;;;2.72
11926;BMP180;6022;48.768;18.608;2022-12-20T14:26:11;99309.25;;;2.70
11926;BMP180;6022;48.768;18.608;2022-12-20T14:28:44;99317.53;;;2.72
11926;BMP180;6022;48.768;18.608;2022-12-20T14:31:44;99316.75;;;2.70
11926;BMP180;6022;48.768;18.608;2022-12-20T14:34:28;99318.56;;;2.62
11926;BMP180;6022;48.768;18.608;2022-12-20T14:37:30;99316.00;;;2.65
11926;BMP180;6022;48.768;18.608;2022-12-20T14:40:15;99322.69;;;2.64
11926;BMP180;6022;48.768;18.608;2022-12-20T14:42:46;99325.22;;;2.63
11926;BMP180;6022;48.768;18.608;2022-12-20T14:48:04;99309.50;;;2.55
11926;BMP180;6022;48.768;18.608;2022-12-20T14:50:38;99305.41;;;2.51
11926;BMP180;6022;48.768;18.608;2022-12-20T14:53:25;99297.16;;;2.46
11926;BMP180;6022;48.768;18.608;2022-12-20T14:55:55;99294.66;;;2.45
11926;BMP180;6022;48.768;18.608;2022-12-20T14:58:33;99310.66;;;2.38
11926;BMP180;6022;48.768;18.608;2022-12-20T15:01:19;99298.97;;;2.38
11926;BMP180;6022;48.768;18.608;2022-12-20T15:03:56;99305.81;;;2.29
11926;BMP180;6022;48.768;18.608;2022-12-20T15:09:03;99306.69;;;2.26
11926;BMP180;6022;48.768;18.608;2022-12-20T15:11:35;99305.06;;;2.23
11926;BMP180;6022;48.768;18.608;2022-12-20T15:14:32;99318.47;;;2.19
11926;BMP180;6022;48.768;18.608;2022-12-20T15:17:11;99316.06;;;2.16
11926;BMP180;6022;48.768;18.608;2022-12-20T15:19:42;99298.56;;;2.13
11926;BMP180;6022;48.768;18.608;2022-12-20T15:22:16;99291.97;;;2.09
11926;BMP180;6022;48.768;18.608;2022-12-20T15:24:59;99292.78;;;2.09
11926;BMP180;6022;48.768;18.608;2022-12-20T15:27:26;99295.34;;;2.08
11926;BMP180;6022;48.768;18.608;2022-12-20T15:29:53;99284.53;;;2.04
11926;BMP180;6022;48.768;18.608;2022-12-20T15:32:26;99278.75;;;2.01
11926;BMP180;6022;48.768;18.608;2022-12-20T15:34:55;99280.34;;;2.06
11926;BMP180;6022;48.768;18.608;2022-12-20T15:37:24;99266.13;;;2.07
11926;BMP180;6022;48.768;18.608;2022-12-20T15:39:51;99272.84;;;2.06
11926;BMP180;6022;48.768;18.608;2022-12-20T15:42:19;99271.16;;;2.05
11926;BMP180;6022;48.768;18.608;2022-12-20T15:44:47;99258.63;;;2.07
11926;BMP180;6022;48.768;18.608;2022-12-20T15:47:15;99268.69;;;2.04
11926;BMP180;6022;48.768;18.608;2022-12-20T15:49:43;99297.06;;;2.03
11926;BMP180;6022;48.768;18.608;2022-12-20T15:52:22;99299.63;;;1.98
11926;BMP180;6022;48.768;18.608;2022-12-20T15:54:50;99288.09;;;1.90
11926;BMP180;6022;48.768;18.608;2022-12-20T15:57:17;99284.75;;;1.91
11926;BMP180;6022;48.768;18.608;2022-12-20T15:59:45;99283.91;;;1.92
11926;BMP180;6022;48.768;18.608;2022-12-20T16:02:28;99283.03;;;1.94
11926;BMP180;6022;48.768;18.608;2022-12-20T16:04:57;99285.59;;;1.91
11926;BMP180;6022;48.768;18.608;2022-12-20T16:07:25;99278.94;;;1.89
11926;BMP180;6022;48.768;18.608;2022-12-20T16:09:53;99291.50;;;1.86
11926;BMP180;6022;48.768;18.608;2022-12-20T16:12:33;99289.81;;;1.87
11926;BMP180;6022;48.768;18.608;2022-12-20T16:15:01;99269.81;;;1.85
11926;BMP180;6022;48.768;18.608;2022-12-20T16:17:29;99274.88;;;1.84
11926;BMP180;6022;48.768;18.608;2022-12-20T16:19:56;99277.44;;;1.79
11926;BMP180;6022;48.768;18.608;2022-12-20T16:22:23;99277.44;;;1.79
11926;BMP180;6022;48.768;18.608;2022-12-20T16:24:55;99284.94;;;1.79
11926;BMP180;6022;48.768;18.608;2022-12-20T16:27:22;99291.63;;;1.79
11926;BMP180;6022;48.768;18.608;2022-12-20T16:29:50;99289.34;;;1.65
11926;BMP180;6022;48.768;18.608;2022-12-20T16:32:20;99284.34;;;1.62
11926;BMP180;6022;48.768;18.608;2022-12-20T16:34:51;99274.41;;;1.59
11926;BMP180;6022;48.768;18.608;2022-12-20T16:37:20;99272.75;;;1.58
11926;BMP180;6022;48.768;18.608;2022-12-20T16:39:50;99272.03;;;1.50
11926;BMP180;6022;48.768;18.608;2022-12-20T16:42:19;99267.06;;;1.49
11926;BMP180;6022;48.768;18.608;2022-12-20T16:44:53;99267.94;;;1.47
11926;BMP180;6022;48.768;18.608;2022-12-20T16:47:23;99271.19;;;1.51
11926;BMP180;6022;48.768;18.608;2022-12-20T16:49:50;99269.44;;;1.56
11926;BMP180;6022;48.768;18.608;2022-12-20T16:52:22;99261.94;;;1.56
11926;BMP180;6022;48.768;18.608;2022-12-20T16:54:50;99251.13;;;1.57
11926;BMP180;6022;48.768;18.608;2022-12-20T16:57:18;99252.75;;;1.60
11926;BMP180;6022;48.768;18.608;2022-12-20T16:59:47;99257.69;;;1.63